KROAKLYH

Guest
Details From KROA - Roanoke Rgnl Woodrum Field
To KLYH - LYNCHBURG RGNL PRESTON GLENN FLD
Flight Number -
Tags decoded
Created
Modified
Stats Distance 37 nm / 69 km
Max Altitude 0 ft / 0 m
Waypoints 3
Social Downloads 0
Likes 0
Share VATSIM

Download

Looking for another format? Having issues loading an existing format? Contact us
Advertisement - Login to hide

Notes

Requested: KROA GOOZE KLYH

Route

KROA GOOZE KLYH

ID Type Via Altitude Latitude Longitude Leg Dist Tot Dist Heading (true) Name
O KROA APT - 0 ft / 0 m 37.32488˚ -79.97597˚ - 0 nm - Roanoke Rgnl Woodrum Field
GOOZE FIX - 0 ft / 0 m 37.28914˚ -79.55373˚ 20 nm 20 nm 96° / 96° -
O KLYH APT - 0 ft / 0 m 37.32733˚ -79.20014˚ 17 nm 37 nm 82° / 82° LYNCHBURG RGNL PRESTON GLENN FLD

Altitude Profile

Advertisement - Login to hide

KROA

Details ICAO KROA (ROA)
Name Roanoke Rgnl Woodrum Field
Region United States
Timezone America/New_York (UTC-4.0)
Stats Elevation 1,175 ft / 358 m (AMSL)
Location 37.324878° -79.975970°
Runways 2
Magnetic Variation 8.711° W

METAR

Not found

TAF

TAF AMD KROA 280237Z 2803/2824 VRB03KT P6SM VCTS BKN040CB FM280500 VRB02KT P6SM VCSH BKN040 FM280900 00000KT 4SM BR BKN100 TEMPO 2809/2813 2SM BR FM281300 VRB02KT P6SM BKN050 FM281900 VRB03KT P6SM OVC025

Decode

Departure Runways

ID Width Length Bearing (true) Bearing (mag) Surface Threshold Offset Overrun Length
06 151 ft / 46 m 6,002 ft / 1,829 m 49.64° 58.35° Asphalt 177 ft / 54 m 52 ft / 16 m
15 151 ft / 46 m 5,816 ft / 1,773 m 148.03° 156.74° Asphalt 184 ft / 56 m 33 ft / 10 m
24 151 ft / 46 m 6,002 ft / 1,829 m 229.65° 238.36° Asphalt 112 ft / 34 m 850 ft / 259 m
33 151 ft / 46 m 5,816 ft / 1,773 m 328.03° 336.74° Asphalt 180 ft / 55 m 49 ft / 15 m

KLYH

Details ICAO KLYH (LYH)
Name LYNCHBURG RGNL PRESTON GLENN FLD
Region United States
Timezone America/New_York (UTC-4.0)
Stats Elevation 938 ft / 286 m (AMSL)
Location 37.327327° -79.200143°
Runways 2
Magnetic Variation 9.208° W

METAR

Not found

TAF

KLYH 280236Z 2803/2824 VRB03KT 6SM SHRA SCT035 TEMPO 2803/2804 3/4SM +TSRA BKN020CB FM280530 00000KT P6SM VCSH OVC025 FM280900 00000KT 4SM BR BKN140 TEMPO 2809/2813 2SM BR FM281300 VRB03KT P6SM BKN070 FM281900 14004KT P6SM OVC030

Decode

Destination Runways

ID Width Length Bearing (true) Bearing (mag) Surface Threshold Offset Overrun Length
04 151 ft / 46 m 5,803 ft / 1,769 m 27.78° 36.99° Asphalt 171 ft / 52 m 0 ft / 0 m
17 135 ft / 41 m 3,636 ft / 1,108 m 161.06° 170.27° Asphalt 0 ft / 0 m 164 ft / 50 m
22 151 ft / 46 m 5,803 ft / 1,769 m 207.79° 217.00° Asphalt 177 ft / 54 m 0 ft / 0 m
35 135 ft / 41 m 3,636 ft / 1,108 m 341.06° 350.27° Asphalt 0 ft / 0 m 197 ft / 60 m

Approach Navaids

Runway Type Ident Frequency Range Bearing (true) Bearing (mag) Slope Elevation
04 Localiser ILYH 110.10 MHz 18 nm / 33 km 27.72° 36.93° - 938 ft / 286 m (AMSL)
04 Glidescope ILYH 110.10 MHz 10 nm / 19 km 27.79° 36.99° 3.00° 901 ft / 275 m (AMSL)

Popular Alternatives